createdAt,value
2023-01-25T00:00:00.793Z,0.20
2023-01-25T00:02:27.866Z,0.19
2023-01-25T00:04:54.386Z,0.18
2023-01-25T00:07:20.829Z,0.20
2023-01-25T00:09:47.195Z,0.13
2023-01-25T00:12:13.636Z,0.09
2023-01-25T00:14:40.015Z,0.09
2023-01-25T00:17:06.610Z,0.07
2023-01-25T00:19:33.100Z,0.08
2023-01-25T00:21:59.654Z,0.06
2023-01-25T00:24:26.468Z,0.05
2023-01-25T00:26:53.030Z,0.02
2023-01-25T00:29:19.633Z,0.01
2023-01-25T00:32:28.567Z,-0.02
2023-01-25T00:34:55.304Z,-0.02
2023-01-25T00:37:30.569Z,-0.04
2023-01-25T00:39:57.099Z,-0.04
2023-01-25T00:42:23.759Z,-0.02
2023-01-25T00:44:50.349Z,0.01
2023-01-25T00:47:17.543Z,-0.04
2023-01-25T00:49:45.440Z,-0.01
2023-01-25T00:52:12.020Z,-0.01
2023-01-25T00:54:38.655Z,-0.01
2023-01-25T00:57:05.477Z,-0.01
2023-01-25T00:59:31.843Z,-0.03
2023-01-25T01:01:58.687Z,-0.05
2023-01-25T01:04:25.338Z,-0.04
2023-01-25T01:06:53.832Z,-0.05
2023-01-25T01:09:21.622Z,-0.09
2023-01-25T01:11:48.242Z,-0.08
2023-01-25T01:14:14.793Z,-0.09
2023-01-25T01:16:41.618Z,-0.10
2023-01-25T01:19:08.079Z,-0.10
2023-01-25T01:21:34.429Z,-0.10
2023-01-25T01:24:00.849Z,-0.09
2023-01-25T01:26:27.297Z,-0.11
2023-01-25T01:28:53.764Z,-0.12
2023-01-25T01:31:23.680Z,-0.13
2023-01-25T01:33:51.805Z,-0.16
2023-01-25T01:36:20.024Z,-0.15
2023-01-25T01:38:47.110Z,-0.12
2023-01-25T01:41:15.451Z,-0.11
2023-01-25T01:43:42.844Z,-0.11
2023-01-25T01:46:12.378Z,-0.12
2023-01-25T01:48:43.192Z,-0.11
2023-01-25T01:51:27.871Z,-0.09
2023-01-25T01:54:05.002Z,-0.08
2023-01-25T01:56:38.738Z,-0.09
2023-01-25T01:59:07.320Z,-0.10
2023-01-25T02:01:34.585Z,-0.12
2023-01-25T02:04:02.872Z,-0.12
2023-01-25T02:06:44.106Z,-0.14
2023-01-25T02:09:11.642Z,-0.17
2023-01-25T02:11:38.504Z,-0.19
2023-01-25T02:14:06.927Z,-0.23
2023-01-25T02:16:33.580Z,-0.24
2023-01-25T02:19:02.157Z,-0.24
2023-01-25T02:21:36.934Z,-0.25
2023-01-25T02:24:23.643Z,-0.24
2023-01-25T02:26:50.277Z,-0.26
2023-01-25T02:29:19.544Z,-0.30
2023-01-25T02:31:47.483Z,-0.32
2023-01-25T02:34:14.032Z,-0.31
2023-01-25T02:36:40.858Z,-0.29
2023-01-25T02:39:17.324Z,-0.30
2023-01-25T02:41:48.077Z,-0.30
2023-01-25T02:44:18.000Z,-0.30
2023-01-25T02:46:50.669Z,-0.31
2023-01-25T02:49:17.768Z,-0.33
2023-01-25T02:51:46.825Z,-0.33
2023-01-25T02:54:15.057Z,-0.36
2023-01-25T02:56:41.794Z,-0.36
2023-01-25T02:59:09.623Z,-0.36
2023-01-25T03:01:38.246Z,-0.30
2023-01-25T03:04:05.628Z,-0.28
2023-01-25T03:06:32.893Z,-0.26
2023-01-25T03:08:59.420Z,-0.30
2023-01-25T03:11:25.914Z,-0.32
2023-01-25T03:13:52.605Z,-0.36
2023-01-25T03:16:19.537Z,-0.34
2023-01-25T03:18:46.270Z,-0.37
2023-01-25T03:21:18.071Z,-0.38
2023-01-25T03:23:45.676Z,-0.37
2023-01-25T03:26:22.914Z,-0.34
2023-01-25T03:28:49.309Z,-0.33
2023-01-25T03:31:17.322Z,-0.34
2023-01-25T03:33:43.926Z,-0.35
2023-01-25T03:36:11.029Z,-0.44
2023-01-25T03:38:37.529Z,-0.39
2023-01-25T03:41:04.513Z,-0.39
2023-01-25T03:43:31.604Z,-0.41
2023-01-25T03:46:00.795Z,-0.40
2023-01-25T03:48:28.364Z,-0.38
2023-01-25T03:50:57.496Z,-0.41
2023-01-25T03:53:32.859Z,-0.44
2023-01-25T03:56:08.234Z,-0.49
2023-01-25T03:58:35.928Z,-0.52
2023-01-25T04:01:04.198Z,-0.48
2023-01-25T04:03:31.418Z,-0.47
2023-01-25T04:05:59.029Z,-0.45
2023-01-25T04:08:26.491Z,-0.46
2023-01-25T04:11:05.406Z,-0.48
2023-01-25T04:13:35.080Z,-0.46
2023-01-25T04:16:01.484Z,-0.46
2023-01-25T04:18:27.990Z,-0.44
2023-01-25T04:20:55.669Z,-0.43
2023-01-25T04:23:23.405Z,-0.41
2023-01-25T04:25:54.634Z,-0.39
2023-01-25T04:28:21.097Z,-0.37
2023-01-25T04:30:47.676Z,-0.37
2023-01-25T04:33:14.212Z,-0.41
2023-01-25T04:35:40.832Z,-0.46
2023-01-25T04:38:07.383Z,-0.46
2023-01-25T04:40:33.771Z,-0.47
2023-01-25T04:43:00.252Z,-0.51
2023-01-25T04:45:26.773Z,-0.52
2023-01-25T04:48:05.665Z,-0.55
2023-01-25T04:50:32.526Z,-0.56
2023-01-25T04:52:58.897Z,-0.60
2023-01-25T04:55:25.373Z,-0.61
2023-01-25T04:57:51.805Z,-0.61
2023-01-25T05:00:19.646Z,-0.64
2023-01-25T05:02:46.738Z,-0.71
2023-01-25T05:05:14.902Z,-0.68
2023-01-25T05:07:41.564Z,-0.65
2023-01-25T05:10:08.953Z,-0.65
2023-01-25T05:12:35.474Z,-0.63
2023-01-25T05:15:02.217Z,-0.69
2023-01-25T05:17:28.583Z,-0.66
2023-01-25T05:19:55.119Z,-0.65
2023-01-25T05:22:22.271Z,-0.63
2023-01-25T05:24:49.115Z,-0.64
2023-01-25T05:27:18.192Z,-0.64
2023-01-25T05:29:46.169Z,-0.65
2023-01-25T05:32:21.367Z,-0.62
2023-01-25T05:34:48.547Z,-0.63
2023-01-25T05:37:18.335Z,-0.66
2023-01-25T05:39:44.749Z,-0.65
2023-01-25T05:42:15.178Z,-0.65
2023-01-25T05:44:41.669Z,-0.67
2023-01-25T05:47:12.815Z,-0.68
2023-01-25T05:49:39.221Z,-0.73
2023-01-25T05:52:05.790Z,-0.74
2023-01-25T05:54:32.503Z,-0.73
2023-01-25T05:56:58.965Z,-0.72
2023-01-25T05:59:25.545Z,-0.71
2023-01-25T06:01:52.917Z,-0.71
2023-01-25T06:04:19.370Z,-0.74
2023-01-25T06:06:45.904Z,-0.76
2023-01-25T06:09:13.507Z,-0.78
2023-01-25T06:11:43.234Z,-0.80
2023-01-25T06:14:09.587Z,-0.78
2023-01-25T06:16:36.025Z,-0.78
2023-01-25T06:19:05.395Z,-0.74
2023-01-25T06:21:32.471Z,-0.79
2023-01-25T06:23:58.889Z,-0.82
2023-01-25T06:26:25.310Z,-0.82
2023-01-25T06:28:53.332Z,-0.83
2023-01-25T06:31:20.128Z,-0.84
2023-01-25T06:33:51.097Z,-0.85
2023-01-25T06:36:19.312Z,-0.86
2023-01-25T06:38:50.775Z,-0.88
2023-01-25T06:41:18.077Z,-0.90
2023-01-25T06:43:45.065Z,-0.90
2023-01-25T06:46:14.840Z,-0.92
2023-01-25T06:48:42.915Z,-0.90
2023-01-25T06:51:12.495Z,-0.91
2023-01-25T06:53:41.382Z,-0.93
2023-01-25T06:56:11.795Z,-0.92
2023-01-25T06:58:38.980Z,-0.97
2023-01-25T07:01:11.690Z,-1.01
2023-01-25T07:03:38.565Z,-0.98
2023-01-25T07:06:07.429Z,-0.98
2023-01-25T07:08:34.288Z,-0.97
2023-01-25T07:11:03.360Z,-0.96
2023-01-25T07:13:31.737Z,-0.98
2023-01-25T07:16:02.985Z,-1.04
2023-01-25T07:18:31.564Z,-1.01
2023-01-25T07:21:13.383Z,-1.02
2023-01-25T07:23:39.912Z,-1.03
2023-01-25T07:26:06.905Z,-1.01
2023-01-25T07:28:33.470Z,-1.04
2023-01-25T07:31:07.346Z,-1.06
2023-01-25T07:33:34.813Z,-1.11
2023-01-25T07:36:02.161Z,-1.21
2023-01-25T07:38:28.689Z,-1.19
2023-01-25T07:40:55.114Z,-1.17
2023-01-25T07:43:21.683Z,-1.10
2023-01-25T07:45:50.973Z,-1.11
2023-01-25T07:48:19.191Z,-1.09
2023-01-25T07:50:46.667Z,-1.11
2023-01-25T07:53:13.844Z,-1.08
2023-01-25T07:55:40.241Z,-1.08
2023-01-25T07:58:06.877Z,-1.07
2023-01-25T08:00:33.359Z,-1.07
2023-01-25T08:02:59.882Z,-1.03
2023-01-25T08:05:26.283Z,-1.01
2023-01-25T08:07:52.666Z,-0.97
2023-01-25T08:10:19.189Z,-0.99
2023-01-25T08:12:46.739Z,-1.03
2023-01-25T08:15:14.197Z,-1.09
2023-01-25T08:17:40.807Z,-1.13
2023-01-25T08:20:08.896Z,-1.10
2023-01-25T08:22:35.916Z,-1.13
2023-01-25T08:25:04.022Z,-1.13
2023-01-25T08:27:31.532Z,-1.15
2023-01-25T08:29:58.313Z,-1.15
2023-01-25T08:32:24.933Z,-1.16
2023-01-25T08:34:51.562Z,-1.11
2023-01-25T08:37:18.146Z,-1.13
2023-01-25T08:39:44.817Z,-1.13
2023-01-25T08:42:11.391Z,-1.13
2023-01-25T08:44:38.339Z,-1.08
2023-01-25T08:47:05.001Z,-1.10
2023-01-25T08:49:34.440Z,-1.12
2023-01-25T08:52:01.047Z,-1.11
2023-01-25T08:54:27.863Z,-1.11
2023-01-25T08:56:56.167Z,-1.14
2023-01-25T08:59:22.965Z,-1.09
2023-01-25T09:01:49.542Z,-1.03
2023-01-25T09:04:16.049Z,-1.00
2023-01-25T09:06:42.981Z,-1.07
2023-01-25T09:09:09.950Z,-1.02
2023-01-25T09:11:38.402Z,-1.00
2023-01-25T09:14:05.854Z,-0.99
2023-01-25T09:16:32.808Z,-0.95
2023-01-25T09:19:02.199Z,-0.94
2023-01-25T09:21:29.345Z,-0.94
2023-01-25T09:24:11.727Z,-0.91
2023-01-25T09:26:45.919Z,-0.87
2023-01-25T09:29:14.659Z,-0.85
2023-01-25T09:31:43.524Z,-0.85
2023-01-25T09:34:12.728Z,-0.85
2023-01-25T09:36:40.278Z,-0.89
2023-01-25T09:39:06.756Z,-0.88
2023-01-25T09:41:48.163Z,-0.84
2023-01-25T09:44:36.395Z,-0.88
2023-01-25T09:47:19.086Z,-0.89
2023-01-25T09:50:11.856Z,-0.94
2023-01-25T09:52:57.446Z,-0.93
2023-01-25T09:55:27.980Z,-0.84
2023-01-25T09:58:00.175Z,-0.81
2023-01-25T10:00:32.478Z,-0.85
2023-01-25T10:03:22.180Z,-0.81
2023-01-25T10:05:51.716Z,-0.76
2023-01-25T10:08:20.791Z,-0.80
2023-01-25T10:10:52.352Z,-0.77
2023-01-25T10:13:23.153Z,-0.75
2023-01-25T10:16:25.861Z,-0.73
2023-01-25T10:19:20.827Z,-0.72
2023-01-25T10:21:54.753Z,-0.69
2023-01-25T10:24:52.215Z,-0.63
2023-01-25T10:27:30.917Z,-0.61
2023-01-25T10:30:02.361Z,-0.70
2023-01-25T10:32:32.515Z,-0.77
2023-01-25T10:35:19.765Z,-0.83
2023-01-25T10:37:53.515Z,-0.75
2023-01-25T10:40:25.039Z,-0.75
2023-01-25T10:42:58.007Z,-0.71
2023-01-25T10:45:24.424Z,-0.69
2023-01-25T10:47:57.308Z,-0.79
2023-01-25T10:50:38.835Z,-0.77
2023-01-25T10:53:05.498Z,-0.74
2023-01-25T10:55:31.925Z,-0.78
2023-01-25T10:57:58.450Z,-0.75
2023-01-25T11:00:41.474Z,-0.70
2023-01-25T11:03:23.775Z,-0.66
2023-01-25T11:05:55.089Z,-0.64
2023-01-25T11:08:42.137Z,-0.60
2023-01-25T11:11:25.432Z,-0.56
2023-01-25T11:13:55.297Z,-0.58
2023-01-25T11:16:32.432Z,-0.58
2023-01-25T11:19:01.238Z,-0.58
2023-01-25T11:21:30.210Z,-0.61
2023-01-25T11:24:11.758Z,-0.63
2023-01-25T11:26:39.964Z,-0.64
2023-01-25T11:29:15.740Z,-0.80
2023-01-25T11:31:48.184Z,-0.85
2023-01-25T11:34:20.877Z,-0.80
2023-01-25T11:37:02.145Z,-0.81
2023-01-25T11:39:39.360Z,-0.84
2023-01-25T11:42:18.097Z,-0.84
2023-01-25T11:45:09.533Z,-0.85
2023-01-25T11:47:44.491Z,-0.81
2023-01-25T11:50:23.981Z,-0.77
2023-01-25T11:53:15.117Z,-0.79
2023-01-25T11:55:54.331Z,-0.76
2023-01-25T11:58:26.981Z,-0.65
2023-01-25T12:01:15.274Z,-0.63
2023-01-25T12:04:09.635Z,-0.60
2023-01-25T12:06:55.722Z,-0.59
2023-01-25T12:09:33.988Z,-0.55
2023-01-25T12:12:23.887Z,-0.57
2023-01-25T12:15:18.094Z,-0.56
2023-01-25T12:18:01.805Z,-0.61
2023-01-25T12:20:43.409Z,-0.69
2023-01-25T12:23:31.454Z,-0.66
2023-01-25T12:26:19.862Z,-0.57
2023-01-25T12:28:54.485Z,-0.57
2023-01-25T12:31:28.930Z,-0.61
2023-01-25T12:34:08.353Z,-0.63
2023-01-25T12:36:43.026Z,-0.66
2023-01-25T12:39:21.755Z,-0.67
2023-01-25T12:42:12.642Z,-0.63
2023-01-25T12:44:47.867Z,-0.59
2023-01-25T12:47:25.107Z,-0.62
2023-01-25T12:50:00.564Z,-0.64
2023-01-25T12:52:34.369Z,-0.62
2023-01-25T12:55:03.591Z,-0.62
2023-01-25T12:57:41.312Z,-0.58
2023-01-25T13:00:22.228Z,-0.58
2023-01-25T13:03:21.845Z,-0.58
2023-01-25T13:06:06.828Z,-0.55
2023-01-25T13:08:42.153Z,-0.62
2023-01-25T13:11:31.722Z,-0.75
2023-01-25T13:14:18.542Z,-0.72
2023-01-25T13:17:09.081Z,-0.73
2023-01-25T13:19:36.121Z,-0.72
2023-01-25T13:22:02.639Z,-0.67
2023-01-25T13:24:31.572Z,-0.65
2023-01-25T13:27:19.460Z,-0.69
2023-01-25T13:29:47.108Z,-0.77
2023-01-25T13:32:24.424Z,-0.78
2023-01-25T13:34:50.901Z,-0.77
2023-01-25T13:37:20.808Z,-0.78
2023-01-25T13:39:48.872Z,-0.75
2023-01-25T13:42:20.752Z,-0.84
2023-01-25T13:44:51.688Z,-1.05
2023-01-25T13:47:22.666Z,-1.06
2023-01-25T13:49:55.484Z,-0.99
2023-01-25T13:52:24.573Z,-0.94
2023-01-25T13:54:55.134Z,-0.89
2023-01-25T13:57:24.429Z,-0.86
2023-01-25T14:00:11.454Z,-0.84
2023-01-25T14:02:39.768Z,-0.85
2023-01-25T14:05:18.031Z,-0.84
2023-01-25T14:07:47.800Z,-0.81
2023-01-25T14:10:24.392Z,-0.80
2023-01-25T14:12:53.507Z,-0.76
2023-01-25T14:15:27.290Z,-0.73
2023-01-25T14:18:19.192Z,-0.76
2023-01-25T14:20:53.550Z,-0.79
2023-01-25T14:23:28.543Z,-0.85
2023-01-25T14:25:59.505Z,-0.89
2023-01-25T14:28:27.786Z,-0.86
2023-01-25T14:31:01.713Z,-0.84
2023-01-25T14:33:38.021Z,-0.81
2023-01-25T14:36:24.566Z,-0.86
2023-01-25T14:38:51.994Z,-0.93
2023-01-25T14:41:29.482Z,-0.95
2023-01-25T14:43:58.221Z,-1.06
2023-01-25T14:46:30.640Z,-1.12
2023-01-25T14:49:25.686Z,-1.07
2023-01-25T14:52:11.079Z,-1.00
2023-01-25T14:54:59.319Z,-0.98
2023-01-25T14:57:32.716Z,-0.98
2023-01-25T15:00:01.553Z,-1.03
2023-01-25T15:02:40.844Z,-1.11
2023-01-25T15:05:16.802Z,-1.09
2023-01-25T15:07:55.997Z,-1.02
2023-01-25T15:10:27.475Z,-0.97
2023-01-25T15:13:14.590Z,-1.02
2023-01-25T15:15:58.927Z,-1.04
2023-01-25T15:18:53.120Z,-1.03
2023-01-25T15:21:20.757Z,-1.04
2023-01-25T15:23:49.942Z,-1.01
2023-01-25T15:26:31.050Z,-0.98
2023-01-25T15:29:07.685Z,-0.98
2023-01-25T15:31:37.490Z,-0.99
2023-01-25T15:34:04.910Z,-0.98
2023-01-25T15:36:32.836Z,-0.97
2023-01-25T15:38:59.968Z,-1.02
2023-01-25T15:41:26.416Z,-1.02
2023-01-25T15:43:53.159Z,-1.09
2023-01-25T15:46:22.768Z,-1.13
2023-01-25T15:48:51.022Z,-1.14
2023-01-25T15:51:18.665Z,-1.21
2023-01-25T15:53:46.757Z,-1.24
2023-01-25T15:56:16.842Z,-1.27
2023-01-25T15:58:47.347Z,-1.27
2023-01-25T16:01:16.809Z,-1.27
2023-01-25T16:03:43.268Z,-1.24
2023-01-25T16:06:41.871Z,-1.24
2023-01-25T16:09:25.061Z,-1.23
2023-01-25T16:11:56.859Z,-1.23
2023-01-25T16:14:29.406Z,-1.17
2023-01-25T16:19:37.586Z,-1.21
2023-01-25T16:22:04.360Z,-1.20
2023-01-25T16:24:31.466Z,-1.22
2023-01-25T16:27:00.189Z,-1.20
2023-01-25T16:29:27.501Z,-1.28
2023-01-25T16:31:54.797Z,-1.33
2023-01-25T16:34:22.105Z,-1.33
2023-01-25T16:36:52.824Z,-1.31
2023-01-25T16:39:22.365Z,-1.33
2023-01-25T16:41:49.270Z,-1.30
2023-01-25T16:44:16.365Z,-1.30
2023-01-25T16:46:42.885Z,-1.35
2023-01-25T16:49:16.451Z,-1.33
2023-01-25T16:51:45.221Z,-1.30
2023-01-25T16:54:12.471Z,-1.33
2023-01-25T16:56:38.968Z,-1.28
2023-01-25T16:59:06.649Z,-1.22
2023-01-25T17:01:33.399Z,-1.23
2023-01-25T17:04:00.055Z,-1.20
2023-01-25T17:06:29.334Z,-1.18
2023-01-25T17:08:58.982Z,-1.14
2023-01-25T17:11:26.700Z,-1.17
2023-01-25T17:13:56.298Z,-1.18
2023-01-25T17:16:25.507Z,-1.19
2023-01-25T17:18:56.976Z,-1.18
2023-01-25T17:21:24.049Z,-1.17
2023-01-25T17:23:50.914Z,-1.15
2023-01-25T17:26:18.856Z,-1.15
2023-01-25T17:28:45.645Z,-1.16
2023-01-25T17:31:29.496Z,-1.22
2023-01-25T17:33:56.637Z,-1.23
2023-01-25T17:36:23.378Z,-1.24
2023-01-25T17:38:49.931Z,-1.24
2023-01-25T17:41:17.350Z,-1.24
2023-01-25T17:43:43.909Z,-1.26
2023-01-25T17:46:14.975Z,-1.26
2023-01-25T17:48:41.859Z,-1.29
2023-01-25T17:51:08.516Z,-1.29
2023-01-25T17:53:34.885Z,-1.29
2023-01-25T17:56:04.046Z,-1.29
2023-01-25T17:58:31.592Z,-1.29
2023-01-25T18:01:12.507Z,-1.31
2023-01-25T18:03:40.259Z,-1.29
2023-01-25T18:06:09.376Z,-1.30
2023-01-25T18:08:40.530Z,-1.29
2023-01-25T18:11:12.429Z,-1.27
2023-01-25T18:13:40.616Z,-1.26
2023-01-25T18:16:09.578Z,-1.25
2023-01-25T18:18:40.325Z,-1.29
2023-01-25T18:21:09.803Z,-1.32
2023-01-25T18:23:37.526Z,-1.31
2023-01-25T18:26:11.520Z,-1.30
2023-01-25T18:28:37.962Z,-1.31
2023-01-25T18:31:06.052Z,-1.32
2023-01-25T18:33:33.242Z,-1.32
2023-01-25T18:36:03.914Z,-1.30
2023-01-25T18:38:32.965Z,-1.32
2023-01-25T18:40:59.674Z,-1.30
2023-01-25T18:43:28.054Z,-1.29
2023-01-25T18:45:58.580Z,-1.27
2023-01-25T18:48:32.670Z,-1.31
2023-01-25T18:51:08.973Z,-1.36
2023-01-25T18:53:37.297Z,-1.38
2023-01-25T18:56:07.813Z,-1.37
2023-01-25T18:58:36.103Z,-1.38
2023-01-25T19:01:13.915Z,-1.38
2023-01-25T19:03:41.980Z,-1.38
2023-01-25T19:06:08.827Z,-1.39
2023-01-25T19:08:40.592Z,-1.38
2023-01-25T19:11:15.067Z,-1.38
2023-01-25T19:13:43.020Z,-1.37
2023-01-25T19:16:13.006Z,-1.36
2023-01-25T19:18:44.500Z,-1.36
2023-01-25T19:21:11.047Z,-1.34
2023-01-25T19:23:38.629Z,-1.34
2023-01-25T19:26:11.473Z,-1.32
2023-01-25T19:28:38.825Z,-1.33
2023-01-25T19:31:10.448Z,-1.33
2023-01-25T19:33:37.210Z,-1.34
2023-01-25T19:36:06.503Z,-1.32
2023-01-25T19:38:37.164Z,-1.33
2023-01-25T19:41:08.741Z,-1.32
2023-01-25T19:43:35.610Z,-1.31
2023-01-25T19:46:17.017Z,-1.30
2023-01-25T19:48:45.378Z,-1.31
2023-01-25T19:51:33.153Z,-1.29
2023-01-25T19:54:02.917Z,-1.26
2023-01-25T19:56:32.070Z,-1.25
2023-01-25T19:58:58.518Z,-1.26
2023-01-25T20:01:29.258Z,-1.24
2023-01-25T20:04:01.010Z,-1.24
2023-01-25T20:06:27.848Z,-1.24
2023-01-25T20:08:54.741Z,-1.25
2023-01-25T20:11:23.739Z,-1.23
2023-01-25T20:13:52.474Z,-1.25
2023-01-25T20:16:19.436Z,-1.26
2023-01-25T20:18:47.832Z,-1.26
2023-01-25T20:21:16.847Z,-1.26
2023-01-25T20:23:45.051Z,-1.26
2023-01-25T20:26:26.570Z,-1.27
2023-01-25T20:28:54.198Z,-1.27
2023-01-25T20:31:30.111Z,-1.28
2023-01-25T20:33:58.723Z,-1.28
2023-01-25T20:36:28.063Z,-1.26
2023-01-25T20:38:54.524Z,-1.25
2023-01-25T20:41:21.191Z,-1.23
2023-01-25T20:43:49.210Z,-1.25
2023-01-25T20:46:16.891Z,-1.25
2023-01-25T20:48:44.288Z,-1.27
2023-01-25T20:51:13.871Z,-1.26
2023-01-25T20:53:42.004Z,-1.25
2023-01-25T20:56:10.164Z,-1.27
2023-01-25T20:58:37.355Z,-1.33
2023-01-25T21:01:12.317Z,-1.34
2023-01-25T21:03:38.716Z,-1.32
2023-01-25T21:06:07.208Z,-1.31
2023-01-25T21:08:33.762Z,-1.28
2023-01-25T21:11:00.568Z,-1.29
2023-01-25T21:13:29.254Z,-1.27
2023-01-25T21:16:10.988Z,-1.26
2023-01-25T21:19:05.067Z,-1.26
2023-01-25T21:21:34.604Z,-1.25
2023-01-25T21:24:02.582Z,-1.24
2023-01-25T21:26:30.871Z,-1.24
2023-01-25T21:28:59.197Z,-1.27
2023-01-25T21:31:32.889Z,-1.28
2023-01-25T21:33:59.960Z,-1.28
2023-01-25T21:36:26.783Z,-1.27
2023-01-25T21:38:55.043Z,-1.28
2023-01-25T21:41:28.951Z,-1.30
2023-01-25T21:44:16.025Z,-1.29
2023-01-25T21:46:52.352Z,-1.31
2023-01-25T21:49:45.696Z,-1.31
2023-01-25T21:52:12.089Z,-1.29
2023-01-25T21:54:38.823Z,-1.27
2023-01-25T21:57:11.566Z,-1.27
2023-01-25T21:59:39.738Z,-1.28
2023-01-25T22:02:10.447Z,-1.29
2023-01-25T22:04:37.969Z,-1.30
2023-01-25T22:07:06.073Z,-1.27
2023-01-25T22:09:32.724Z,-1.26
2023-01-25T22:11:59.130Z,-1.27
2023-01-25T22:14:25.568Z,-1.24
2023-01-25T22:16:52.209Z,-1.26
2023-01-25T22:19:18.867Z,-1.26
2023-01-25T22:21:45.605Z,-1.24
2023-01-25T22:24:12.462Z,-1.21
2023-01-25T22:26:45.356Z,-1.25
2023-01-25T22:29:12.575Z,-1.21
2023-01-25T22:31:38.981Z,-1.20
2023-01-25T22:34:05.520Z,-1.20
2023-01-25T22:36:31.916Z,-1.20
2023-01-25T22:39:00.244Z,-1.21
2023-01-25T22:41:29.393Z,-1.20
2023-01-25T22:43:55.968Z,-1.20
2023-01-25T22:46:25.282Z,-1.19
2023-01-25T22:48:51.793Z,-1.17
2023-01-25T22:51:21.601Z,-1.17
2023-01-25T22:53:49.450Z,-1.17
2023-01-25T22:56:18.677Z,-1.14
2023-01-25T22:58:46.108Z,-1.14
2023-01-25T23:01:18.850Z,-1.14
2023-01-25T23:03:45.685Z,-1.14
2023-01-25T23:06:18.264Z,-1.14
2023-01-25T23:08:45.043Z,-1.13
2023-01-25T23:11:13.997Z,-1.12
2023-01-25T23:13:40.850Z,-1.12
2023-01-25T23:16:09.907Z,-1.12
2023-01-25T23:18:52.032Z,-1.12
2023-01-25T23:21:23.685Z,-1.12
2023-01-25T23:23:51.913Z,-1.12
2023-01-25T23:26:18.386Z,-1.11
2023-01-25T23:28:50.702Z,-1.12
2023-01-25T23:31:18.139Z,-1.11
2023-01-25T23:33:46.931Z,-1.11
2023-01-25T23:36:15.937Z,-1.11
2023-01-25T23:38:43.548Z,-1.08
2023-01-25T23:41:10.041Z,-1.09
2023-01-25T23:43:37.289Z,-1.09
2023-01-25T23:46:04.433Z,-1.09
2023-01-25T23:48:30.905Z,-1.10
2023-01-25T23:51:00.193Z,-1.09
2023-01-25T23:53:27.416Z,-1.09
2023-01-25T23:55:56.060Z,-1.09
2023-01-25T23:58:23.252Z,-1.09
